Texas General Land Office
 Texas General Land Office
 George P. Bush, Commissioner

 Oil Spill Prevention
 & Response

Texas Automated Buoy System
Real Time Ocean Observations
Supporting Oil Spill Prevention and
Response since 1995
Geochemical and Environmental Research Group

TABS Buoy V -- Texas Automated Buoy System

TABS Buoy V Conditions at 01/20/2018 15:00 UTC (01/20/2018 09:00 CST)
27° 53.7960'N   93° 35.8380'W
AA3900 DCS - sensor depth 2m
Anemometer height: 4m
Water Depth: 295 feet (89 meters)
Speed: 0.00 cm/s (0.00 kts) Direction: 90 °T (E) Water Temp: 0°C (32 °F)
System Voltage: 0.0 V Signal Strength: 0.0 dB Ping Count: 0
Wind: 1.2 m/s (2.3 kts)
          From 252°T (WSW)
Air Temp: 24 °C (75 °F)
Relative Humidity:  0 %
Pressure: 1021.9 mb (30.18 inHg)
Waves: 1.1 m (3.8 ft) @ 7 sec
  


IMPORTANT: Notice to Mariners


Today's Velocity Data (download)

   Date   |  Time  |   East |   North|   Speed|  Dir | WaterT |
          |  (UTC) |  (cm/s)|  (cm/s)|  (cm/s)| (°T) |  (°C)  |
==========+========+========+========+========+======+========+
01/19/2018 22:00:00    80.00     0.00    80.00   90.0    0.0
01/19/2018 23:00:00     0.00     0.00     0.00   90.0    0.0
01/19/2018 23:30:00     0.00     0.00     0.00   90.0    0.0
12/31/1969 18:00:00    64.00     0.00    64.00   90.0    0.0
01/20/2018 00:00:00     0.00     0.00     0.00   90.0    0.0
01/20/2018 00:30:00     0.00     0.00     0.00   90.0    0.0
01/20/2018 01:00:00     0.00     0.00     0.00   90.0    0.0
01/20/2018 01:30:00     0.00     0.00     0.00   90.0    0.0
01/20/2018 02:00:00     0.00     0.00     0.00   90.0    0.0
01/20/2018 02:30:00     0.00     0.00     0.00   90.0    0.0
01/20/2018 03:00:00     0.00     0.00     0.00   90.0    0.0
01/20/2018 03:30:00     0.00     0.00     0.00   90.0    0.0
01/20/2018 04:00:00     0.00     0.00     0.00   90.0    0.0
01/20/2018 04:30:00     0.00     0.00     0.00   90.0    0.0
01/20/2018 07:00:00     0.00     0.00     0.00   90.0    0.0
01/20/2018 07:30:00     0.00     0.00     0.00   90.0    0.0
01/20/2018 08:00:00     0.00     0.00     0.00   90.0    0.0
01/20/2018 08:30:00     0.00     0.00     0.00   90.0    0.0
01/20/2018 09:00:00     0.00     0.00     0.00   90.0    0.0
01/20/2018 09:30:00     0.00     0.00     0.00   90.0    0.0
01/20/2018 10:00:00     0.00     0.00     0.00   90.0    0.0
01/20/2018 10:30:00     0.00     0.00     0.00   90.0    0.0
01/20/2018 11:00:00     0.00     0.00     0.00   90.0    0.0
01/20/2018 11:30:00     0.00     0.00     0.00   90.0    0.0
01/20/2018 12:00:00     0.00     0.00     0.00   90.0    0.0
01/20/2018 12:30:00     0.00     0.00     0.00   90.0    0.0
01/20/2018 15:00:00     0.00     0.00     0.00   90.0    0.0



       
 

Today's Wave Data    


   Date   |  Time  |Sig Wave Ht| Peak Period|
          |  (UTC) | (meters)  |    (sec)   |
==========+========+===========+============+
12/18/2017 00:21:00      1.4        7
12/18/2017 01:20:58      1.4        7
12/18/2017 02:20:58      1.4        7
12/18/2017 03:20:58      1.4        7
12/18/2017 04:20:58      1.4        7
12/18/2017 05:20:59      1.3        7
12/18/2017 06:20:58      1.2        8
12/18/2017 07:20:58      1.3        7
12/18/2017 08:20:58      1.3        7
12/18/2017 09:20:59      1.4        7
12/18/2017 10:20:58      1.3        7
12/18/2017 11:20:58      1.2        7
12/18/2017 12:20:58      1.2        8
12/18/2017 13:20:58      1.3        7
12/18/2017 14:20:58      1.1        7
12/18/2017 15:20:58      1.3      200
12/18/2017 16:20:58      1.1        7
       
 

Today's Temperature - Salinity Data     (Download)


   Date   |  Time  |   Temp |   Cond |Salinity| Density|SoundVel|
          |  (UTC) |   (°C) | (ms/cm)|        | kg/m^3 |  (m/s) |
==========+========+========+========+========+========+========+
12/18/2017 00:00:00    23.11    52.47    36.06     0.00     0.00
12/18/2017 00:30:00    23.10    52.46    36.06     0.00     0.00
12/18/2017 01:00:00    23.08    52.46    36.07     0.00     0.00
12/18/2017 01:30:00    23.09    52.46    36.07     0.00     0.00
12/18/2017 02:00:00    23.07    52.45    36.07     0.00     0.00
12/18/2017 02:30:00    23.07    52.44    36.07     0.00     0.00
12/18/2017 03:00:00    23.07    52.45    36.07     0.00     0.00
12/18/2017 03:30:00    23.10    52.46    36.06     0.00     0.00
12/18/2017 04:00:00    23.09    52.44    36.05     0.00     0.00
12/18/2017 04:30:00    23.08    52.43    36.05     0.00     0.00
12/18/2017 05:00:00    23.07    52.42    36.05     0.00     0.00
12/18/2017 05:30:00    23.06    52.40    36.04     0.00     0.00
12/18/2017 06:00:00    23.07    52.40    36.03     0.00     0.00
12/18/2017 06:30:00    23.08    52.39    36.03     0.00     0.00
12/18/2017 07:00:00    23.08    52.39    36.03     0.00     0.00
12/18/2017 07:30:00    23.07    52.38    36.02     0.00     0.00
12/18/2017 08:00:00    23.06    52.38    36.03     0.00     0.00
12/18/2017 08:30:00    23.05    52.37    36.03     0.00     0.00
12/18/2017 09:00:00    23.05    52.36    36.02     0.00     0.00
12/18/2017 09:30:00    23.04    52.34    36.02     0.00     0.00
12/18/2017 10:00:00    23.01    52.29    36.00     0.00     0.00
12/18/2017 10:30:00    22.98    52.24    35.99     0.00     0.00
12/18/2017 11:00:00    22.97    52.21    35.98     0.00     0.00
12/18/2017 11:30:00    22.96    52.20    35.97     0.00     0.00
12/18/2017 12:00:00    22.93    52.12    35.93     0.00     0.00
12/18/2017 12:30:00    22.92    52.08    35.91     0.00     0.00
12/18/2017 13:00:00    22.92    52.10    35.93     0.00     0.00
12/18/2017 13:30:00    22.92    52.10    35.93     0.00     0.00
12/18/2017 14:00:00    22.92    52.11    35.93     0.00     0.00
12/18/2017 14:30:00    22.94    52.14    35.94     0.00     0.00
12/18/2017 15:00:00    22.95    52.12    35.92     0.00     0.00
12/18/2017 15:30:00    24.08     1.07     0.54     0.00     0.00
12/18/2017 16:00:00    24.37     0.88     0.44     0.00     0.00
12/18/2017 16:30:00    25.32     0.78     0.38     0.00     0.00